Time;durP1;ratioP1;P1;durP2;ratioP2;P2;SDS_P1;SDS_P2;PMS_P1;PMS_P2;Temp;Humidity;BMP_temperature;BMP_pressure;BME280_temperature;BME280_humidity;BME280_pressure;Samples;Min_cycle;Max_cycle;Signal;HPM_P1;HPM_P2
2024/03/25 00:00:25;;;;;;;3.25;1.30;;;;;;;2.88;100.00;95243.00;1036820;28;20029;-68
2024/03/25 00:00:55;;;;;;;2.10;1.15;;;;;;;2.91;100.00;95245.94;1027064;28;20023;-67
2024/03/25 00:01:25;;;;;;;1.75;1.08;;;;;;;2.95;100.00;95246.28;1034876;28;20034;-68
2024/03/25 00:01:56;;;;;;;1.00;0.80;;;;;;;2.92;100.00;95239.75;1027073;28;20030;-67
2024/03/25 00:02:26;;;;;;;3.78;1.17;;;;;;;2.95;100.00;95243.69;1031092;28;20425;-68
2024/03/25 00:02:57;;;;;;;2.50;1.00;;;;;;;2.94;100.00;95247.28;1022869;29;20117;-67
2024/03/25 00:03:27;;;;;;;3.83;1.42;;;;;;;2.92;100.00;95247.53;1023229;28;20039;-68
2024/03/25 00:03:58;;;;;;;2.03;1.20;;;;;;;2.92;100.00;95242.34;1030822;28;20031;-68
2024/03/25 00:04:28;;;;;;;2.63;1.02;;;;;;;2.94;100.00;95239.53;1027292;28;20034;-67
2024/03/25 00:04:59;;;;;;;3.38;0.98;;;;;;;2.96;100.00;95233.09;1030999;28;20026;-67
2024/03/25 00:05:31;;;;;;;5.80;1.40;;;;;;;2.96;100.00;95243.47;1026658;28;20043;-67
2024/03/25 00:06:01;;;;;;;1.83;1.27;;;;;;;2.87;100.00;95229.28;1031159;28;20547;-67
2024/03/25 00:06:33;;;;;;;2.45;1.27;;;;;;;2.90;100.00;95238.41;1030848;28;20340;-69
2024/03/25 00:07:03;;;;;;;2.53;1.17;;;;;;;2.96;100.00;95240.88;1030751;28;20026;-67
2024/03/25 00:07:34;;;;;;;3.45;1.13;;;;;;;2.88;100.00;95225.66;1030983;28;20667;-67
2024/03/25 00:08:05;;;;;;;1.35;0.90;;;;;;;2.92;100.00;95231.16;1030829;28;20030;-68
2024/03/25 00:08:35;;;;;;;2.65;1.20;;;;;;;2.96;100.00;95232.31;1026413;28;20019;-67
2024/03/25 00:09:07;;;;;;;2.97;1.42;;;;;;;2.99;100.00;95237.84;1018778;29;20024;-66
2024/03/25 00:09:38;;;;;;;4.28;1.13;;;;;;;2.98;100.00;95228.47;1019210;29;20020;-67
2024/03/25 00:10:08;;;;;;;2.25;1.20;;;;;;;2.98;100.00;95241.41;1020058;28;20279;-67
2024/03/25 00:10:39;;;;;;;1.27;0.88;;;;;;;2.98;100.00;95241.41;1027274;28;20023;-67
2024/03/25 00:11:09;;;;;;;2.10;0.85;;;;;;;2.91;100.00;95230.38;1026847;28;20022;-67
2024/03/25 00:11:40;;;;;;;2.65;1.55;;;;;;;2.95;100.00;95246.28;1027066;28;20290;-68
2024/03/25 00:12:11;;;;;;;1.15;0.93;;;;;;;2.98;100.00;95240.63;1030645;28;20086;-67
2024/03/25 00:12:41;;;;;;;1.55;0.98;;;;;;;2.94;100.00;95240.31;1031158;28;20266;-69
2024/03/25 00:13:12;;;;;;;2.67;0.90;;;;;;;3.01;100.00;95235.78;1026866;28;20019;-67
2024/03/25 00:13:42;;;;;;;1.70;1.15;;;;;;;2.99;100.00;95237.84;1026787;28;20116;-68
2024/03/25 00:14:13;;;;;;;2.72;1.00;;;;;;;3.00;100.00;95242.00;1027000;28;20023;-68
2024/03/25 00:14:43;;;;;;;2.67;0.88;;;;;;;2.99;100.00;95237.84;1026997;28;20022;-68
2024/03/25 00:15:14;;;;;;;3.75;1.27;;;;;;;2.98;100.00;95233.66;1031064;28;20487;-68
2024/03/25 00:15:44;;;;;;;1.38;0.95;;;;;;;3.00;100.00;95247.19;1029218;28;20035;-67
2024/03/25 00:16:15;;;;;;;2.92;1.15;;;;;;;3.00;100.00;95242.00;1026920;28;20026;-68
2024/03/25 00:16:45;;;;;;;1.35;1.10;;;;;;;2.99;100.00;95235.25;1027140;28;20088;-69
2024/03/25 00:17:17;;;;;;;2.42;1.15;;;;;;;3.02;100.00;95241.78;1026759;28;20101;-67
2024/03/25 00:17:47;;;;;;;2.85;1.65;;;;;;;3.01;100.00;95238.38;1022970;28;20275;-66
2024/03/25 00:18:18;;;;;;;2.03;0.90;;;;;;;2.96;100.00;95230.50;1026991;28;20035;-68
2024/03/25 00:18:48;;;;;;;1.90;0.80;;;;;;;3.00;100.00;95234.22;1026418;28;20523;-67
2024/03/25 00:19:18;;;;;;;1.10;0.90;;;;;;;3.01;100.00;95238.38;1026864;28;20536;-67
2024/03/25 00:19:52;;;;;;;2.10;0.80;;;;;;;3.02;100.00;95239.97;1027408;28;20033;-67
2024/03/25 00:20:22;;;;;;;2.92;1.00;;;;;;;3.02;100.00;95239.19;1026548;28;20022;-67
2024/03/25 00:20:52;;;;;;;3.92;1.27;;;;;;;3.01;100.00;95246.16;1027745;28;20264;-69
2024/03/25 00:21:24;;;;;;;3.58;0.88;;;;;;;2.97;100.00;95232.06;1030893;28;20073;-67
2024/03/25 00:21:54;;;;;;;1.10;1.00;;;;;;;3.03;100.00;95233.75;1026823;28;20030;-67
2024/03/25 00:22:25;;;;;;;3.83;1.08;;;;;;;3.00;100.00;95228.25;1025100;28;20278;-67
2024/03/25 00:22:55;;;;;;;1.13;0.73;;;;;;;3.00;100.00;95239.41;1030911;28;20026;-68
2024/03/25 00:23:26;;;;;;;1.52;0.93;;;;;;;2.94;100.00;95223.97;1031118;28;20022;-68
2024/03/25 00:23:56;;;;;;;2.25;1.10;;;;;;;2.98;100.00;95233.66;1027223;28;20635;-68
2024/03/25 00:24:27;;;;;;;6.43;1.50;;;;;;;2.99;100.00;95232.66;1030691;28;20088;-68
2024/03/25 00:24:57;;;;;;;2.72;1.17;;;;;;;3.00;100.00;95236.81;1035084;28;20026;-67
2024/03/25 00:25:28;;;;;;;1.88;1.05;;;;;;;3.01;100.00;95237.59;1023635;28;20081;-67
2024/03/25 00:25:59;;;;;;;0.85;0.80;;;;;;;3.01;100.00;95230.59;1026530;28;20015;-68
2024/03/25 00:26:29;;;;;;;0.93;0.82;;;;;;;3.02;100.00;95234.00;1026688;28;20030;-68
2024/03/25 00:26:59;;;;;;;1.27;0.80;;;;;;;3.04;100.00;95231.97;1026936;28;20027;-68
2024/03/25 00:27:30;;;;;;;8.13;1.10;;;;;;;3.05;100.00;95231.75;1031572;28;20045;-67
2024/03/25 00:28:01;;;;;;;4.60;1.52;;;;;;;2.98;100.00;95220.69;1027048;28;20033;-68
2024/03/25 00:28:31;;;;;;;1.98;0.98;;;;;;;3.03;100.00;95220.81;1026057;28;20031;-68
2024/03/25 00:29:01;;;;;;;2.05;0.95;;;;;;;2.92;100.00;95213.84;1027021;28;20294;-68
2024/03/25 00:29:32;;;;;;;2.15;1.10;;;;;;;3.02;100.00;95234.78;1030689;28;20027;-67
2024/03/25 00:30:03;;;;;;;2.13;0.77;;;;;;;3.00;100.00;95226.44;1026800;28;20023;-67
2024/03/25 00:30:34;;;;;;;2.95;1.00;;;;;;;3.01;100.00;95230.59;1031241;28;20027;-67
2024/03/25 00:31:04;;;;;;;3.38;1.65;;;;;;;2.96;100.00;95224.53;1034701;28;20022;-68
2024/03/25 00:31:35;;;;;;;1.80;0.90;;;;;;;3.03;100.00;95231.19;1023307;28;20031;-68
2024/03/25 00:32:05;;;;;;;3.38;1.10;;;;;;;2.97;100.00;95220.94;1031113;28;20060;-68
2024/03/25 00:32:36;;;;;;;1.95;1.00;;;;;;;3.05;100.00;95234.34;1026677;28;20104;-67
2024/03/25 00:33:06;;;;;;;4.93;1.13;;;;;;;3.05;100.00;95231.75;1027281;28;20027;-68
2024/03/25 00:33:37;;;;;;;2.33;1.15;;;;;;;3.06;100.00;95222.94;1026879;28;20038;-67
2024/03/25 00:34:08;;;;;;;3.03;0.73;;;;;;;3.06;100.00;95230.72;1023050;28;20086;-69
2024/03/25 00:34:38;;;;;;;1.65;0.90;;;;;;;3.08;100.00;95227.91;1027003;28;20089;-68
2024/03/25 00:35:09;;;;;;;3.60;1.20;;;;;;;3.09;100.00;95221.72;1026901;28;20027;-67
2024/03/25 00:35:39;;;;;;;4.57;0.90;;;;;;;3.08;100.00;95220.13;1030825;28;20350;-67
2024/03/25 00:36:10;;;;;;;1.45;0.95;;;;;;;3.09;100.00;95226.91;1032843;28;20022;-68
2024/03/25 00:36:40;;;;;;;2.00;1.00;;;;;;;3.09;100.00;95228.69;1034874;28;20030;-67
2024/03/25 00:37:11;;;;;;;3.85;1.17;;;;;;;3.03;100.00;95217.44;1030930;28;20392;-68
2024/03/25 00:37:41;;;;;;;1.92;1.02;;;;;;;3.09;100.00;95236.47;1032994;28;20111;-68
2024/03/25 00:38:12;;;;;;;4.63;1.10;;;;;;;3.07;100.00;95226.31;1026796;28;20019;-68
2024/03/25 00:38:43;;;;;;;2.03;1.20;;;;;;;3.08;100.00;95227.91;1026549;28;20023;-67
2024/03/25 00:39:13;;;;;;;3.83;1.30;;;;;;;3.10;100.00;95227.69;1026837;28;20408;-68
2024/03/25 00:39:44;;;;;;;2.17;0.95;;;;;;;3.09;100.00;95226.13;1027082;28;20282;-68
2024/03/25 00:40:15;;;;;;;4.05;1.08;;;;;;;3.10;100.00;95233.66;1027268;28;20015;-67
2024/03/25 00:40:45;;;;;;;5.07;1.35;;;;;;;3.07;100.00;95224.50;1028626;28;20200;-68
2024/03/25 00:41:15;;;;;;;2.90;1.05;;;;;;;3.03;100.00;95222.63;1032339;28;20025;-67
2024/03/25 00:41:46;;;;;;;1.98;0.90;;;;;;;3.09;100.00;95237.25;1024414;29;20035;-68
2024/03/25 00:42:16;;;;;;;2.72;0.93;;;;;;;3.04;100.00;95219.78;1024256;29;20752;-68
2024/03/25 00:42:47;;;;;;;3.13;0.90;;;;;;;3.09;100.00;95226.91;1028071;28;20464;-68
2024/03/25 00:43:18;;;;;;;1.50;0.80;;;;;;;3.09;100.00;95226.13;1027483;28;20030;-68
2024/03/25 00:43:49;;;;;;;2.10;1.00;;;;;;;3.13;100.00;95240.19;1030692;28;20832;-68
2024/03/25 00:44:19;;;;;;;2.53;0.77;;;;;;;3.09;100.00;95226.13;1023559;28;20015;-68
2024/03/25 00:44:50;;;;;;;3.33;1.10;;;;;;;3.12;100.00;95225.63;1026795;28;20266;-68
2024/03/25 00:45:20;;;;;;;1.60;1.10;;;;;;;3.13;100.00;95227.22;1026769;28;20027;-67
2024/03/25 00:45:51;;;;;;;1.60;0.98;;;;;;;3.09;100.00;95228.69;1026637;28;20121;-67
2024/03/25 00:46:21;;;;;;;2.45;1.17;;;;;;;3.09;100.00;95226.91;1029024;28;20031;-68
2024/03/25 00:46:52;;;;;;;2.65;1.20;;;;;;;3.03;100.00;95222.63;1035258;28;20017;-68
2024/03/25 00:47:23;;;;;;;2.63;0.95;;;;;;;3.09;100.00;95226.13;1030568;28;20106;-67
2024/03/25 00:47:53;;;;;;;0.88;0.70;;;;;;;3.11;100.00;95235.22;1026792;28;20647;-67
2024/03/25 00:48:23;;;;;;;2.65;1.10;;;;;;;3.10;100.00;95230.28;1031072;28;20022;-68
2024/03/25 00:48:54;;;;;;;2.85;1.10;;;;;;;3.09;100.00;95231.28;1017989;29;20091;-67
2024/03/25 00:49:24;;;;;;;2.45;0.90;;;;;;;3.09;100.00;95226.13;1018722;29;20035;-66
2024/03/25 00:49:55;;;;;;;2.65;1.05;;;;;;;3.05;100.00;95226.56;1023092;29;20019;-68
2024/03/25 00:50:26;;;;;;;5.47;1.35;;;;;;;3.10;100.00;95233.66;1022933;28;20031;-68
2024/03/25 00:50:56;;;;;;;1.52;0.70;;;;;;;3.11;100.00;95231.84;1026936;28;20023;-67
2024/03/25 00:51:27;;;;;;;2.35;1.17;;;;;;;3.10;100.00;95225.09;1026563;28;20026;-67
2024/03/25 00:51:57;;;;;;;4.85;1.42;;;;;;;3.07;100.00;95229.69;1023148;28;20400;-68
2024/03/25 00:52:28;;;;;;;4.47;1.45;;;;;;;3.07;100.00;95227.09;1027690;28;20034;-69
2024/03/25 00:52:58;;;;;;;1.95;0.75;;;;;;;3.09;100.00;95239.06;1030711;28;20455;-67
2024/03/25 00:53:29;;;;;;;2.30;1.27;;;;;;;3.07;100.00;95231.50;1030828;28;20062;-67
2024/03/25 00:53:59;;;;;;;1.17;0.90;;;;;;;3.05;100.00;95229.16;1031226;28;20018;-67
2024/03/25 00:54:30;;;;;;;3.33;1.23;;;;;;;2.96;100.00;95222.75;1022810;28;20027;-67
2024/03/25 00:55:00;;;;;;;2.25;1.17;;;;;;;2.98;100.00;95220.69;1034435;28;20509;-67
2024/03/25 00:55:31;;;;;;;3.80;1.13;;;;;;;3.08;100.00;95235.66;1030748;28;20069;-67
2024/03/25 00:56:01;;;;;;;2.85;0.90;;;;;;;3.01;100.00;95225.41;1030908;28;20077;-67
2024/03/25 00:56:32;;;;;;;4.97;1.38;;;;;;;3.06;100.00;95232.53;1020837;29;20398;-67
2024/03/25 00:57:02;;;;;;;5.60;1.20;;;;;;;3.05;100.00;95233.53;1016887;29;20031;-67
2024/03/25 00:57:33;;;;;;;2.00;0.90;;;;;;;3.05;100.00;95241.31;1019001;29;20051;-67
2024/03/25 00:58:03;;;;;;;2.13;1.27;;;;;;;3.04;100.00;95237.94;1023250;28;20019;-67
2024/03/25 00:58:34;;;;;;;1.88;0.85;;;;;;;2.96;100.00;95220.16;1033553;28;20075;-68
2024/03/25 00:59:06;;;;;;;2.40;1.08;;;;;;;3.04;100.00;95232.75;1031224;28;20098;-67
2024/03/25 00:59:36;;;;;;;5.30;1.02;;;;;;;3.04;100.00;95231.97;1030715;28;20129;-68
2024/03/25 01:00:07;;;;;;;3.72;1.20;;;;;;;3.04;100.00;95234.56;1030807;28;20713;-68
2024/03/25 01:00:38;;;;;;;1.08;0.95;;;;;;;3.01;100.00;95229.81;1038187;28;20033;-68
2024/03/25 01:01:08;;;;;;;3.38;1.20;;;;;;;3.04;100.00;95235.34;1038967;28;20842;-67
2024/03/25 01:01:39;;;;;;;1.25;0.98;;;;;;;3.05;100.00;95231.75;1038766;28;20021;-67
2024/03/25 01:02:09;;;;;;;4.45;1.40;;;;;;;3.03;100.00;95228.59;1030808;28;20030;-68
2024/03/25 01:02:40;;;;;;;1.65;1.10;;;;;;;3.01;100.00;95240.19;1026652;28;20336;-68
2024/03/25 01:03:10;;;;;;;4.15;1.30;;;;;;;2.99;100.00;95237.84;1031134;28;20022;-67
2024/03/25 01:03:41;;;;;;;1.70;1.02;;;;;;;3.00;100.00;95238.63;1021769;28;20039;-67
2024/03/25 01:04:11;;;;;;;1.73;0.85;;;;;;;3.00;100.00;95243.81;1022876;28;20027;-67
2024/03/25 01:04:41;;;;;;;2.58;1.17;;;;;;;2.98;100.00;95236.25;1026943;28;20095;-67
2024/03/25 01:05:12;;;;;;;3.65;0.95;;;;;;;2.96;100.00;95233.09;1026842;28;20473;-67
2024/03/25 01:05:43;;;;;;;3.80;0.85;;;;;;;2.98;100.00;95245.81;1030367;28;20119;-68
2024/03/25 01:06:13;;;;;;;2.13;1.30;;;;;;;2.98;100.00;95248.41;1030723;28;20034;-67
2024/03/25 01:06:44;;;;;;;4.05;1.25;;;;;;;3.00;100.00;95244.59;1030613;28;20314;-68
2024/03/25 01:07:14;;;;;;;1.55;1.05;;;;;;;2.99;100.00;95248.19;1030768;28;20035;-68
2024/03/25 01:07:45;;;;;;;2.58;1.15;;;;;;;3.01;100.00;95251.34;1026606;28;20030;-67
2024/03/25 01:08:15;;;;;;;2.13;1.17;;;;;;;3.00;100.00;95254.94;1030436;28;20026;-67
2024/03/25 01:08:46;;;;;;;3.00;1.13;;;;;;;2.99;100.00;95253.38;1025346;28;20587;-67
2024/03/25 01:09:16;;;;;;;2.92;1.30;;;;;;;2.97;100.00;95250.22;1034850;28;20041;-67
2024/03/25 01:09:46;;;;;;;1.67;1.15;;;;;;;2.96;100.00;95259.03;1030691;28;20694;-68
2024/03/25 01:10:17;;;;;;;6.40;1.00;;;;;;;2.93;100.00;95250.91;1026824;28;20034;-67
2024/03/25 01:10:47;;;;;;;3.22;1.02;;;;;;;2.96;100.00;95256.44;1033740;28;20081;-67
2024/03/25 01:11:18;;;;;;;1.95;1.05;;;;;;;2.97;100.00;95254.63;1030971;28;20044;-67
2024/03/25 01:11:48;;;;;;;2.92;1.13;;;;;;;2.95;100.00;95257.44;1034651;28;20098;-67
2024/03/25 01:12:19;;;;;;;1.45;0.80;;;;;;;2.96;100.00;95250.47;1038496;28;20079;-68
2024/03/25 01:12:49;;;;;;;2.85;1.20;;;;;;;2.97;100.00;95255.41;1030886;28;20042;-67
2024/03/25 01:13:20;;;;;;;1.92;1.02;;;;;;;2.97;100.00;95260.59;1034801;28;20076;-68
2024/03/25 01:13:51;;;;;;;3.00;1.20;;;;;;;2.98;100.00;95254.38;1030567;28;20116;-68
2024/03/25 01:14:21;;;;;;;4.97;1.40;;;;;;;2.99;100.00;95262.97;1035076;28;20115;-68
2024/03/25 01:14:52;;;;;;;1.95;0.98;;;;;;;2.98;100.00;95256.97;1038812;28;20219;-68
2024/03/25 01:15:22;;;;;;;2.55;1.05;;;;;;;2.99;100.00;95253.38;1035036;28;20502;-67
2024/03/25 01:15:53;;;;;;;2.20;1.42;;;;;;;2.92;100.00;95244.13;1026584;28;20317;-69
2024/03/25 01:16:23;;;;;;;2.25;1.00;;;;;;;2.93;100.00;95249.09;1030663;28;20475;-67
2024/03/25 01:16:54;;;;;;;1.75;1.00;;;;;;;2.99;100.00;95253.38;1030818;28;20030;-67
2024/03/25 01:17:24;;;;;;;6.63;1.30;;;;;;;2.94;100.00;95248.06;1030537;28;20527;-67
2024/03/25 01:17:55;;;;;;;2.25;1.00;;;;;;;2.98;100.00;95251.78;1026312;28;20035;-67
2024/03/25 01:18:25;;;;;;;2.70;0.95;;;;;;;2.99;100.00;95258.56;1026258;28;20027;-66
2024/03/25 01:18:56;;;;;;;1.60;1.00;;;;;;;2.99;100.00;95250.78;1026411;28;20435;-67
2024/03/25 01:19:26;;;;;;;6.68;1.20;;;;;;;2.97;100.00;95250.22;1027196;28;20204;-68
2024/03/25 01:19:57;;;;;;;2.70;1.17;;;;;;;2.97;100.00;95260.59;1030617;28;20027;-67
2024/03/25 01:20:27;;;;;;;4.10;1.15;;;;;;;2.97;100.00;95257.22;1030643;28;20547;-68
2024/03/25 01:20:59;;;;;;;2.78;1.27;;;;;;;2.93;100.00;95251.69;1034867;28;20018;-68
2024/03/25 01:21:30;;;;;;;4.65;1.20;;;;;;;2.97;100.00;95255.41;1030672;28;20758;-69
2024/03/25 01:22:00;;;;;;;2.60;1.10;;;;;;;2.98;100.00;95256.19;1030573;28;20027;-68
2024/03/25 01:22:31;;;;;;;2.70;1.08;;;;;;;2.96;100.00;95253.84;1028356;28;20038;-67
2024/03/25 01:23:01;;;;;;;2.08;1.00;;;;;;;2.96;100.00;95258.22;1026773;28;20022;-66
2024/03/25 01:23:32;;;;;;;8.20;1.40;;;;;;;2.96;100.00;95263.41;1031006;28;20037;-68
2024/03/25 01:24:02;;;;;;;1.85;1.17;;;;;;;2.88;100.00;95248.19;1030691;28;20030;-68
2024/03/25 01:24:33;;;;;;;3.72;0.90;;;;;;;2.88;100.00;95243.00;1026653;28;20027;-68
2024/03/25 01:25:03;;;;;;;1.52;1.20;;;;;;;2.96;100.00;95268.59;1034901;28;20069;-67
2024/03/25 01:25:34;;;;;;;2.15;1.30;;;;;;;2.95;100.00;95262.63;1034933;28;20499;-67
2024/03/25 01:26:05;;;;;;;3.40;1.00;;;;;;;2.94;100.00;95257.66;1034946;28;20038;-67
2024/03/25 01:26:35;;;;;;;2.05;1.10;;;;;;;2.93;100.00;95261.28;1038810;28;20548;-68
2024/03/25 01:27:06;;;;;;;2.22;1.17;;;;;;;2.91;100.00;95261.47;1034730;28;20121;-68
2024/03/25 01:27:36;;;;;;;1.77;1.00;;;;;;;2.93;100.00;95258.69;1034813;28;20045;-68
2024/03/25 01:28:07;;;;;;;3.00;1.30;;;;;;;2.72;100.00;95232.34;1030619;28;20883;-67
2024/03/25 01:28:37;;;;;;;3.45;1.35;;;;;;;2.91;100.00;95256.31;1030009;28;20070;-67
2024/03/25 01:29:08;;;;;;;2.83;1.25;;;;;;;2.93;100.00;95264.66;1034881;28;20088;-68
2024/03/25 01:29:38;;;;;;;4.75;1.35;;;;;;;2.83;100.00;95248.88;1034792;28;20030;-67
2024/03/25 01:30:09;;;;;;;1.33;1.00;;;;;;;2.91;100.00;95261.47;1034661;28;20021;-67
2024/03/25 01:30:39;;;;;;;2.92;1.10;;;;;;;2.89;100.00;95260.94;1026778;28;20404;-67
2024/03/25 01:31:10;;;;;;;3.25;1.15;;;;;;;2.87;100.00;95257.78;1026442;28;20098;-67
2024/03/25 01:31:40;;;;;;;4.90;1.17;;;;;;;2.90;100.00;95265.09;1022936;28;20031;-68
2024/03/25 01:32:11;;;;;;;6.72;1.48;;;;;;;2.90;100.00;95262.50;1027020;28;20023;-67
2024/03/25 01:32:42;;;;;;;3.35;1.30;;;;;;;2.88;100.00;95261.94;1030374;28;20041;-68
2024/03/25 01:33:13;;;;;;;3.80;1.08;;;;;;;2.91;100.00;95266.66;1030769;28;20085;-68
2024/03/25 01:33:43;;;;;;;4.15;1.25;;;;;;;2.82;100.00;95247.31;1031021;28;20327;-68
2024/03/25 01:34:14;;;;;;;1.92;1.30;;;;;;;2.88;100.00;95261.16;1034737;28;20026;-68
2024/03/25 01:34:45;;;;;;;1.67;0.80;;;;;;;2.80;100.00;95244.16;1036430;28;20030;-69
2024/03/25 01:35:15;;;;;;;5.97;1.15;;;;;;;2.87;100.00;95259.56;1022520;29;20461;-67
2024/03/25 01:35:45;;;;;;;3.53;1.17;;;;;;;2.87;100.00;95262.94;1018853;29;20055;-68
2024/03/25 01:36:17;;;;;;;5.80;1.60;;;;;;;2.87;100.00;95262.16;1022716;29;20023;-67
2024/03/25 01:36:48;;;;;;;2.70;1.30;;;;;;;2.86;100.00;95256.19;1019555;28;20063;-67
2024/03/25 01:37:18;;;;;;;3.95;1.42;;;;;;;2.84;100.00;95256.41;1026676;28;20365;-67
2024/03/25 01:37:49;;;;;;;3.88;1.17;;;;;;;2.86;100.00;95261.38;1023149;29;20035;-67
2024/03/25 01:38:19;;;;;;;2.20;1.10;;;;;;;2.84;100.00;95261.59;1019583;29;20367;-67
2024/03/25 01:38:49;;;;;;;4.60;1.20;;;;;;;2.84;100.00;95271.16;1026751;28;20094;-67
2024/03/25 01:39:20;;;;;;;1.17;1.08;;;;;;;2.85;100.00;95257.22;1031273;28;20455;-68
2024/03/25 01:39:50;;;;;;;6.18;1.20;;;;;;;2.85;100.00;95259.81;1031407;28;20030;-67
2024/03/25 01:40:21;;;;;;;2.17;1.45;;;;;;;2.86;100.00;95263.19;1031743;28;20041;-67
2024/03/25 01:40:51;;;;;;;4.47;1.50;;;;;;;2.86;100.00;95256.19;1027496;28;20037;-66
2024/03/25 01:41:24;;;;;;;1.88;1.10;;;;;;;2.85;100.00;95257.22;1031502;28;20637;-68
2024/03/25 01:41:55;;;;;;;1.83;1.00;;;;;;;2.87;100.00;95262.16;1031921;28;20097;-68
2024/03/25 01:42:25;;;;;;;3.08;1.20;;;;;;;2.87;100.00;95265.53;1031493;28;20739;-68
2024/03/25 01:43:01;;;;;;;4.75;1.48;;;;;;;2.80;100.00;95249.31;1029588;28;20026;-68
2024/03/25 01:43:31;;;;;;;2.28;1.10;;;;;;;2.81;100.00;95254.28;1024189;28;20302;-67
2024/03/25 01:44:02;;;;;;;5.20;1.63;;;;;;;2.85;100.00;95259.81;1024345;28;20259;-68
2024/03/25 01:44:32;;;;;;;3.88;1.33;;;;;;;2.86;100.00;95268.38;1023339;29;20046;-68
2024/03/25 01:45:03;;;;;;;1.10;1.00;;;;;;;2.88;100.00;95261.16;1023878;28;20730;-68
2024/03/25 01:45:34;;;;;;;3.03;1.23;;;;;;;2.88;100.00;95251.56;1035654;28;20038;-68
2024/03/25 01:46:05;;;;;;;2.00;1.40;;;;;;;2.88;100.00;95263.75;1031490;28;20794;-68
2024/03/25 01:46:35;;;;;;;1.80;1.50;;;;;;;2.83;100.00;95259.25;1027157;28;20640;-68
2024/03/25 01:47:06;;;;;;;3.53;1.15;;;;;;;2.85;100.00;95259.81;1027898;28;20086;-67
2024/03/25 01:47:38;;;;;;;2.33;1.40;;;;;;;2.80;100.00;95252.69;1027428;28;20039;-68
2024/03/25 01:48:12;;;;;;;1.33;1.02;;;;;;;2.82;100.00;95252.50;1024577;28;20035;-68
2024/03/25 01:48:43;;;;;;;7.40;1.98;;;;;;;2.78;100.00;95249.56;1018765;29;20374;-67
2024/03/25 01:49:14;;;;;;;5.20;1.45;;;;;;;2.82;100.00;95255.09;1023418;29;20807;-67
2024/03/25 01:49:44;;;;;;;2.22;1.20;;;;;;;2.79;100.00;95258.13;1033362;28;20285;-68
2024/03/25 01:50:15;;;;;;;5.22;1.50;;;;;;;2.84;100.00;95260.81;1035451;28;20049;-67
2024/03/25 01:50:46;;;;;;;1.63;1.08;;;;;;;2.81;100.00;95262.03;1039365;28;20117;-67
2024/03/25 01:51:17;;;;;;;1.52;1.10;;;;;;;2.77;100.00;95255.75;1031496;28;20273;-67
2024/03/25 01:51:48;;;;;;;1.50;0.98;;;;;;;2.79;100.00;95258.91;1031589;28;20128;-68
2024/03/25 01:52:18;;;;;;;3.70;1.40;;;;;;;2.83;100.00;95267.81;1031620;28;20038;-68
2024/03/25 01:52:49;;;;;;;3.42;1.70;;;;;;;2.80;100.00;95254.50;1023619;28;20448;-68
2024/03/25 01:53:19;;;;;;;5.35;1.15;;;;;;;2.80;100.00;95259.69;1027460;28;20031;-68
2024/03/25 01:53:50;;;;;;;4.97;1.30;;;;;;;2.81;100.00;95262.03;1031456;28;20022;-67
2024/03/25 01:54:20;;;;;;;5.28;1.67;;;;;;;2.80;100.00;95259.69;1031396;28;20073;-67
2024/03/25 01:54:50;;;;;;;2.70;1.30;;;;;;;2.74;100.00;95256.19;1031274;28;20041;-68
2024/03/25 01:55:21;;;;;;;5.00;1.92;;;;;;;2.81;100.00;95263.84;1027690;28;20015;-67
2024/03/25 01:55:54;;;;;;;2.65;1.58;;;;;;;2.79;100.00;95265.91;1027327;28;20095;-67
2024/03/25 01:56:24;;;;;;;2.72;1.45;;;;;;;2.72;100.00;95253.06;1028272;28;20101;-68
2024/03/25 01:56:55;;;;;;;1.17;1.00;;;;;;;2.77;100.00;95258.34;1026508;28;20321;-68
2024/03/25 01:57:26;;;;;;;3.25;1.48;;;;;;;2.76;100.00;95259.34;1027386;28;20508;-67
2024/03/25 01:57:57;;;;;;;4.65;1.42;;;;;;;2.79;100.00;95263.31;1023234;29;20251;-68
2024/03/25 01:58:27;;;;;;;5.20;1.42;;;;;;;2.78;100.00;95259.94;1018903;29;20496;-67
2024/03/25 01:58:58;;;;;;;3.25;1.05;;;;;;;2.75;100.00;95260.38;1031369;28;20049;-67
2024/03/25 01:59:28;;;;;;;3.95;1.60;;;;;;;2.77;100.00;95255.75;1027553;28;20094;-68
2024/03/25 01:59:58;;;;;;;4.00;1.40;;;;;;;2.74;100.00;95261.38;1031658;28;20026;-68
2024/03/25 02:00:29;;;;;;;1.92;1.30;;;;;;;2.70;100.00;95254.28;1027562;28;20093;-68
2024/03/25 02:01:01;;;;;;;2.47;1.65;;;;;;;2.69;100.00;95258.69;1031878;28;20022;-68
2024/03/25 02:01:31;;;;;;;3.22;1.45;;;;;;;2.74;100.00;95270.94;1027649;28;20507;-68
2024/03/25 02:02:02;;;;;;;5.50;1.25;;;;;;;2.75;100.00;95262.16;1027918;28;20266;-67
2024/03/25 02:02:33;;;;;;;4.93;1.70;;;;;;;2.74;100.00;95263.19;1027423;28;20018;-68
2024/03/25 02:03:04;;;;;;;5.38;1.52;;;;;;;2.68;100.00;95262.25;1027628;28;20022;-68
2024/03/25 02:03:35;;;;;;;3.13;1.33;;;;;;;2.71;100.00;95261.03;1031406;28;20270;-67
2024/03/25 02:04:07;;;;;;;2.47;1.40;;;;;;;2.75;100.00;95264.75;1035524;28;20249;-68
2024/03/25 02:04:39;;;;;;;4.65;1.25;;;;;;;2.75;100.00;95262.16;1035495;28;20514;-68
2024/03/25 02:05:10;;;;;;;1.80;1.10;;;;;;;2.76;100.00;95267.13;1032482;28;20407;-68
2024/03/25 02:05:40;;;;;;;4.68;1.45;;;;;;;2.74;100.00;95270.94;1031349;28;20808;-68
2024/03/25 02:06:15;;;;;;;1.42;1.15;;;;;;;2.75;100.00;95267.34;1027547;28;20266;-69
2024/03/25 02:06:45;;;;;;;3.78;1.50;;;;;;;2.75;100.00;95269.91;1031209;28;20027;-68
2024/03/25 02:07:16;;;;;;;5.45;1.67;;;;;;;2.74;100.00;95270.94;1027471;28;20277;-67
2024/03/25 02:07:46;;;;;;;5.65;1.40;;;;;;;2.73;100.00;95270.16;1027475;28;20027;-66
2024/03/25 02:08:17;;;;;;;2.25;1.25;;;;;;;2.73;100.00;95267.56;1023450;28;20114;-68
2024/03/25 02:08:49;;;;;;;2.42;1.45;;;;;;;2.75;100.00;95268.16;1026897;28;20026;-69
2024/03/25 02:09:19;;;;;;;4.97;1.80;;;;;;;2.72;100.00;95262.63;1031394;28;20045;-68
2024/03/25 02:09:49;;;;;;;2.85;1.30;;;;;;;2.67;100.00;95262.50;1031701;28;20345;-67
2024/03/25 02:10:20;;;;;;;2.65;1.50;;;;;;;2.64;100.00;95265.53;1035806;28;20034;-68
2024/03/25 02:10:51;;;;;;;3.35;1.33;;;;;;;2.70;100.00;95270.59;1027438;28;20097;-67
2024/03/25 02:11:21;;;;;;;1.30;1.00;;;;;;;2.70;100.00;95275.00;1023838;29;20035;-67
2024/03/25 02:11:52;;;;;;;1.80;1.30;;;;;;;2.69;100.00;95271.63;1031594;28;20610;-67
2024/03/25 02:12:22;;;;;;;1.88;1.40;;;;;;;2.72;100.00;95273.00;1027471;28;20487;-67
2024/03/25 02:12:53;;;;;;;2.78;1.00;;;;;;;2.62;100.00;95257.22;1027678;28;20057;-68
2024/03/25 02:13:23;;;;;;;6.57;1.55;;;;;;;2.67;100.00;95272.84;1023569;28;20044;-68
2024/03/25 02:13:54;;;;;;;4.20;1.70;;;;;;;2.63;100.00;95263.97;1027267;28;20069;-68
2024/03/25 02:14:24;;;;;;;3.83;1.67;;;;;;;2.69;100.00;95273.44;1023576;29;20091;-68
2024/03/25 02:14:55;;;;;;;3.33;1.33;;;;;;;2.70;100.00;95277.59;1019841;29;20035;-67
2024/03/25 02:15:29;;;;;;;3.80;1.38;;;;;;;2.70;100.00;95277.59;1023820;28;20023;-67
2024/03/25 02:15:59;;;;;;;3.97;1.63;;;;;;;2.71;100.00;95271.41;1020890;28;20505;-67
2024/03/25 02:16:29;;;;;;;2.17;1.27;;;;;;;2.70;100.00;95275.78;1031288;28;20288;-67
2024/03/25 02:17:00;;;;;;;3.72;1.23;;;;;;;2.69;100.00;95273.44;1031950;28;20030;-67
2024/03/25 02:17:30;;;;;;;3.35;1.33;;;;;;;2.70;100.00;95272.41;1032146;28;20395;-68
2024/03/25 02:18:01;;;;;;;3.13;1.10;;;;;;;2.65;100.00;95273.09;1035365;28;20507;-68
2024/03/25 02:18:31;;;;;;;2.97;1.38;;;;;;;2.69;100.00;95279.41;1024756;28;20679;-67
2024/03/25 02:19:02;;;;;;;6.38;1.80;;;;;;;2.63;100.00;95263.97;1027206;28;20118;-67
2024/03/25 02:19:32;;;;;;;4.20;1.30;;;;;;;2.67;100.00;95276.22;1027613;28;20089;-68
2024/03/25 02:20:05;;;;;;;6.75;1.40;;;;;;;2.65;100.00;95274.88;1031391;28;20112;-68
2024/03/25 02:20:35;;;;;;;3.53;1.73;;;;;;;2.66;100.00;95276.47;1034909;28;20112;-67
2024/03/25 02:21:06;;;;;;;1.50;0.93;;;;;;;2.65;100.00;95278.28;1035502;28;20273;-67
2024/03/25 02:21:36;;;;;;;3.65;1.80;;;;;;;2.67;100.00;95271.06;1031136;28;20038;-67
2024/03/25 02:22:07;;;;;;;6.57;1.73;;;;;;;2.63;100.00;95269.94;1030881;28;20083;-68
2024/03/25 02:22:37;;;;;;;3.03;1.45;;;;;;;2.67;100.00;95275.44;1023916;28;20493;-67
2024/03/25 02:23:10;;;;;;;3.38;1.25;;;;;;;2.67;100.00;95281.41;1030592;28;20022;-67
2024/03/25 02:23:40;;;;;;;6.63;1.70;;;;;;;2.62;100.00;95272.75;1035755;28;20022;-68
2024/03/25 02:24:11;;;;;;;5.53;1.55;;;;;;;2.65;100.00;95277.47;1031690;28;20257;-68
2024/03/25 02:24:42;;;;;;;3.00;1.60;;;;;;;2.65;100.00;95274.88;1023584;29;20035;-68